Navarino, Wisconsin
Current Conditions -  °F | °C
As of 10:15 AM on Wednesday 26 Nov 2014 (Local Time) from KEZS Reporting Station
Overcast Overcast  
Wind Chill: -7°   Ceiling: 7000
Heat Index: -7°   Visibility: 10mi
Dew Point: -8°   Wind: 0mph
Humidity: 91%   Direction: NA
Pressure: 30.18"   Gusts: NA
Location:  44.7353°N, 88.4379°W
Report Text: KEZS 261615Z AUTO 00000KT 10SM OVC070 M06/M08 A3018 RMK AO2 T10651077
Loading
Personal Weather Stations






























Interactive Weather Map New forecast layout! Learn more

10-Day Weather Forecast

Advertisements
Track Severe Weather on mobile